createdAt,value
2022-12-26T00:02:16.003Z,7.99
2022-12-26T00:04:54.694Z,7.98
2022-12-26T00:07:24.717Z,7.96
2022-12-26T00:09:52.639Z,7.94
2022-12-26T00:12:39.554Z,7.94
2022-12-26T00:15:13.394Z,7.87
2022-12-26T00:17:41.446Z,7.95
2022-12-26T00:20:15.484Z,7.84
2022-12-26T00:22:46.618Z,7.90
2022-12-26T00:25:20.681Z,7.95
2022-12-26T00:27:50.064Z,7.98
2022-12-26T00:30:18.139Z,8.03
2022-12-26T00:32:46.243Z,8.09
2022-12-26T00:35:14.211Z,8.00
2022-12-26T00:37:42.346Z,8.03
2022-12-26T00:40:11.995Z,7.99
2022-12-26T00:42:40.031Z,7.93
2022-12-26T00:45:10.204Z,7.89
2022-12-26T00:47:38.089Z,8.09
2022-12-26T00:50:12.412Z,8.26
2022-12-26T00:52:43.452Z,8.12
2022-12-26T00:55:12.003Z,7.99
2022-12-26T00:57:40.018Z,7.95
2022-12-26T01:00:10.708Z,7.94
2022-12-26T01:02:41.941Z,7.82
2022-12-26T01:05:11.583Z,7.68
2022-12-26T01:08:22.694Z,7.61
2022-12-26T01:10:29.333Z,7.57
2022-12-26T01:12:57.301Z,7.51
2022-12-26T01:15:26.696Z,7.54
2022-12-26T01:17:54.648Z,7.47
2022-12-26T01:20:22.658Z,7.46
2022-12-26T01:22:50.660Z,7.40
2022-12-26T01:25:18.722Z,7.34
2022-12-26T01:27:46.761Z,7.41
2022-12-26T01:30:14.962Z,7.48
2022-12-26T01:32:44.312Z,7.43
2022-12-26T01:35:12.454Z,7.50
2022-12-26T01:37:40.422Z,7.48
2022-12-26T01:40:09.465Z,7.43
2022-12-26T01:42:39.725Z,7.49
2022-12-26T01:45:18.983Z,7.43
2022-12-26T01:47:54.702Z,7.58
2022-12-26T01:50:31.191Z,7.56
2022-12-26T01:53:02.602Z,7.54
2022-12-26T01:55:32.931Z,7.55
2022-12-26T01:58:05.899Z,7.57
2022-12-26T02:00:35.319Z,7.55
2022-12-26T02:03:23.179Z,7.55
2022-12-26T02:05:51.753Z,7.43
2022-12-26T02:08:23.728Z,7.49
2022-12-26T02:11:01.280Z,7.69
2022-12-26T02:13:31.710Z,7.59
2022-12-26T02:15:59.775Z,7.59
2022-12-26T02:18:29.164Z,7.56
2022-12-26T02:21:08.276Z,7.55
2022-12-26T02:23:48.742Z,7.60
2022-12-26T02:26:52.480Z,7.28
2022-12-26T02:30:04.305Z,7.42
2022-12-26T02:32:54.749Z,7.45
2022-12-26T02:35:32.408Z,7.47
2022-12-26T02:38:14.509Z,7.35
2022-12-26T02:40:52.854Z,7.33
2022-12-26T02:43:28.214Z,7.36
2022-12-26T02:46:23.075Z,7.45
2022-12-26T02:48:59.947Z,7.42
2022-12-26T02:51:57.789Z,7.39
2022-12-26T02:54:47.601Z,7.49
2022-12-26T02:57:38.348Z,7.34
2022-12-26T03:00:30.701Z,7.36
2022-12-26T03:03:21.008Z,7.21
2022-12-26T03:06:12.967Z,7.31
2022-12-26T03:09:04.242Z,7.40
2022-12-26T03:11:55.894Z,7.36
2022-12-26T03:14:27.687Z,7.25
2022-12-26T03:17:22.451Z,7.40
2022-12-26T03:20:01.262Z,7.33
2022-12-26T03:22:36.069Z,7.25
2022-12-26T03:25:24.713Z,7.31
2022-12-26T03:27:54.092Z,7.32
2022-12-26T03:33:28.614Z,7.12
2022-12-26T03:35:55.869Z,7.30
2022-12-26T03:38:32.220Z,7.20
2022-12-26T03:41:24.722Z,7.18
2022-12-26T03:44:27.591Z,7.22
2022-12-26T03:47:27.518Z,7.23
2022-12-26T03:50:20.126Z,7.22
2022-12-26T03:53:14.498Z,7.11
2022-12-26T03:56:08.848Z,7.16
2022-12-26T03:59:00.582Z,7.05
2022-12-26T04:01:49.112Z,7.07
2022-12-26T04:04:37.340Z,6.93
2022-12-26T04:07:28.768Z,6.88
2022-12-26T04:10:21.609Z,6.93
2022-12-26T04:13:10.998Z,6.83
2022-12-26T04:16:03.853Z,6.85
2022-12-26T04:19:00.721Z,6.72
2022-12-26T04:21:55.118Z,6.82
2022-12-26T04:24:54.971Z,6.86
2022-12-26T04:27:44.892Z,6.86
2022-12-26T04:30:32.145Z,6.79
2022-12-26T04:33:24.889Z,6.78
2022-12-26T04:36:13.623Z,6.88
2022-12-26T04:39:01.436Z,6.88
2022-12-26T04:41:50.352Z,6.87
2022-12-26T04:44:19.579Z,6.91
2022-12-26T04:46:49.875Z,6.97
2022-12-26T04:49:38.098Z,7.06
2022-12-26T04:52:08.843Z,6.92
2022-12-26T04:54:37.040Z,6.94
2022-12-26T04:57:05.279Z,6.89
2022-12-26T04:59:33.984Z,6.88
2022-12-26T05:02:20.661Z,6.91
2022-12-26T05:05:06.570Z,6.95
2022-12-26T05:07:56.053Z,7.01
2022-12-26T05:10:26.318Z,7.03
2022-12-26T05:12:54.939Z,7.02
2022-12-26T05:15:23.206Z,6.96
2022-12-26T05:18:09.729Z,6.87
2022-12-26T05:20:57.623Z,6.98
2022-12-26T05:23:46.458Z,6.95
2022-12-26T05:26:44.189Z,6.90
2022-12-26T05:29:12.296Z,6.85
2022-12-26T05:31:40.383Z,6.94
2022-12-26T05:34:10.671Z,6.93
2022-12-26T05:36:42.387Z,6.84
2022-12-26T05:39:10.884Z,6.81
2022-12-26T05:41:40.578Z,6.70
2022-12-26T05:44:09.635Z,6.81
2022-12-26T05:46:38.205Z,6.86
2022-12-26T05:49:07.302Z,6.92
2022-12-26T05:51:37.455Z,6.77
2022-12-26T05:54:05.893Z,6.85
2022-12-26T05:56:34.825Z,6.91
2022-12-26T05:59:03.279Z,6.83
2022-12-26T06:01:31.936Z,6.92
2022-12-26T06:04:01.529Z,6.84
2022-12-26T06:06:30.022Z,6.87
2022-12-26T06:08:59.485Z,6.92
2022-12-26T06:11:27.681Z,6.88
2022-12-26T06:13:56.538Z,6.79
2022-12-26T06:16:24.665Z,6.84
2022-12-26T06:21:21.485Z,6.84
2022-12-26T06:23:50.262Z,6.91
2022-12-26T06:26:19.666Z,6.89
2022-12-26T06:28:47.892Z,6.95
2022-12-26T06:31:20.619Z,6.99
2022-12-26T06:33:50.030Z,6.83
2022-12-26T06:36:19.415Z,6.95
2022-12-26T06:38:48.182Z,7.06
2022-12-26T06:41:18.155Z,7.10
2022-12-26T06:43:48.850Z,7.11
2022-12-26T06:46:19.424Z,7.19
2022-12-26T06:48:47.462Z,7.17
2022-12-26T06:51:17.601Z,7.23
2022-12-26T06:53:45.846Z,7.24
2022-12-26T06:56:15.832Z,7.31
2022-12-26T06:58:44.392Z,7.30
2022-12-26T07:01:15.702Z,7.31
2022-12-26T07:03:50.792Z,7.34
2022-12-26T07:06:23.834Z,7.45
2022-12-26T07:08:53.007Z,7.52
2022-12-26T07:11:21.645Z,7.45
2022-12-26T07:13:49.580Z,7.43
2022-12-26T07:16:19.146Z,7.43
2022-12-26T07:18:47.207Z,7.46
2022-12-26T07:21:17.164Z,7.50
2022-12-26T07:23:45.136Z,7.46
2022-12-26T07:26:13.180Z,7.57
2022-12-26T07:28:41.174Z,7.62
2022-12-26T07:31:09.198Z,7.67
2022-12-26T07:33:38.481Z,7.76
2022-12-26T07:36:07.791Z,7.78
2022-12-26T07:38:35.792Z,7.77
2022-12-26T07:41:24.327Z,7.81
2022-12-26T07:43:52.568Z,7.91
2022-12-26T07:46:20.773Z,7.94
2022-12-26T07:48:50.298Z,7.96
2022-12-26T07:51:18.274Z,7.99
2022-12-26T07:53:46.257Z,8.05
2022-12-26T07:56:14.280Z,8.13
2022-12-26T07:58:42.303Z,8.17
2022-12-26T08:01:10.531Z,8.22
2022-12-26T08:03:39.295Z,8.30
2022-12-26T08:06:10.660Z,8.33
2022-12-26T08:08:45.394Z,8.53
2022-12-26T08:11:18.376Z,8.63
2022-12-26T08:13:46.307Z,8.81
2022-12-26T08:16:15.538Z,8.97
2022-12-26T08:18:43.964Z,9.10
2022-12-26T08:21:14.316Z,9.19
2022-12-26T08:23:42.316Z,9.34
2022-12-26T08:26:16.390Z,9.73
2022-12-26T08:28:44.526Z,10.08
2022-12-26T08:31:15.027Z,10.64
2022-12-26T08:33:43.136Z,11.16
2022-12-26T08:36:16.884Z,11.22
2022-12-26T08:38:46.447Z,11.21
2022-12-26T08:41:14.434Z,11.04
2022-12-26T08:44:24.904Z,10.95
2022-12-26T08:46:30.371Z,10.99
2022-12-26T08:48:58.744Z,11.16
2022-12-26T08:51:28.179Z,11.18
2022-12-26T08:53:56.510Z,11.01
2022-12-26T08:56:26.449Z,11.09
2022-12-26T08:58:54.741Z,11.34
2022-12-26T09:01:24.881Z,11.56
2022-12-26T09:03:54.716Z,11.98
2022-12-26T09:06:23.179Z,12.17
2022-12-26T09:08:53.104Z,12.46
2022-12-26T09:11:26.751Z,12.79
2022-12-26T09:13:56.139Z,12.98
2022-12-26T09:16:26.236Z,13.22
2022-12-26T09:18:56.643Z,13.24
2022-12-26T09:21:25.505Z,13.01
2022-12-26T09:23:59.642Z,13.58
2022-12-26T09:26:28.239Z,14.13
2022-12-26T09:28:56.655Z,14.36
2022-12-26T09:31:26.743Z,14.28
2022-12-26T09:33:55.063Z,14.64
2022-12-26T09:36:24.947Z,15.20
2022-12-26T09:38:53.689Z,15.81
2022-12-26T09:41:37.509Z,16.15
2022-12-26T09:44:10.924Z,16.95
2022-12-26T09:46:46.674Z,17.10
2022-12-26T09:49:20.065Z,17.31
2022-12-26T09:51:51.979Z,17.35
2022-12-26T09:54:26.588Z,17.94
2022-12-26T09:57:07.411Z,18.14
2022-12-26T09:59:48.522Z,18.46
2022-12-26T10:02:19.975Z,18.79
